Time;durP1;ratioP1;P1;durP2;ratioP2;P2;SDS_P1;SDS_P2;PMS_P1;PMS_P2;Temp;Humidity;BMP_temperature;BMP_pressure;BME280_temperature;BME280_humidity;BME280_pressure;Samples;Min_cycle;Max_cycle;Signal;HPM_P1;HPM_P2
2023/12/23 00:01:46;;;;;;;14.30;1.52;;;;;;;;;;5017819;28;20014;-80
2023/12/23 00:04:12;;;;;;;14.40;1.42;;;;;;;;;;5014182;28;20028;-80
2023/12/23 00:06:39;;;;;;;11.45;1.70;;;;;;;;;;5012439;28;20028;-80
2023/12/23 00:09:05;;;;;;;14.65;1.48;;;;;;;;;;5017167;28;20448;-80
2023/12/23 00:11:31;;;;;;;17.52;2.42;;;;;;;;;;5019850;28;20005;-80
2023/12/23 00:13:57;;;;;;;11.05;1.83;;;;;;;;;;5019621;28;20018;-80
2023/12/23 00:16:24;;;;;;;11.73;1.88;;;;;;;;;;5010587;28;20067;-80
2023/12/23 00:18:50;;;;;;;11.30;1.70;;;;;;;;;;5015900;28;20045;-80
2023/12/23 00:21:16;;;;;;;14.18;1.60;;;;;;;;;;5023354;28;20013;-80
2023/12/23 00:23:42;;;;;;;12.43;1.95;;;;;;;;;;5014324;28;20117;-80
2023/12/23 00:26:08;;;;;;;11.48;1.35;;;;;;;;;;5016861;28;20481;-80
2023/12/23 00:28:34;;;;;;;8.13;2.00;;;;;;;;;;5015383;28;20068;-80
2023/12/23 00:31:00;;;;;;;10.50;1.85;;;;;;;;;;5015084;28;20021;-80
2023/12/23 00:33:26;;;;;;;9.32;1.30;;;;;;;;;;5021132;28;20010;-80
2023/12/23 00:35:52;;;;;;;10.77;1.80;;;;;;;;;;5016255;28;20021;-80
2023/12/23 00:38:18;;;;;;;9.90;1.50;;;;;;;;;;5017719;28;20013;-80
2023/12/23 00:40:45;;;;;;;10.20;1.50;;;;;;;;;;5015700;28;20006;-80
2023/12/23 00:43:11;;;;;;;14.65;1.55;;;;;;;;;;5015832;28;20010;-80
2023/12/23 00:45:37;;;;;;;11.40;1.30;;;;;;;;;;5015166;28;20014;-80
2023/12/23 00:48:03;;;;;;;7.28;1.27;;;;;;;;;;5025449;28;20038;-80
2023/12/23 00:50:29;;;;;;;9.23;1.50;;;;;;;;;;5013918;28;20068;-80
2023/12/23 00:52:56;;;;;;;8.80;1.25;;;;;;;;;;5015798;28;20462;-80
2023/12/23 00:55:22;;;;;;;7.72;1.50;;;;;;;;;;5013515;28;20013;-80
2023/12/23 00:57:48;;;;;;;10.65;1.35;;;;;;;;;;5013317;28;20028;-80
2023/12/23 01:00:14;;;;;;;9.43;1.50;;;;;;;;;;5009425;28;20014;-80
2023/12/23 01:02:40;;;;;;;9.95;1.17;;;;;;;;;;5015279;28;20029;-80
2023/12/23 01:05:07;;;;;;;9.38;1.10;;;;;;;;;;5013684;28;20028;-80
2023/12/23 01:07:33;;;;;;;10.18;1.45;;;;;;;;;;5018598;28;20063;-80
2023/12/23 01:09:59;;;;;;;10.27;1.65;;;;;;;;;;5021318;28;20037;-80
2023/12/23 01:12:25;;;;;;;9.13;1.75;;;;;;;;;;5015167;28;20041;-80
2023/12/23 01:14:51;;;;;;;8.55;1.17;;;;;;;;;;5012315;28;20018;-80
2023/12/23 01:17:17;;;;;;;9.98;1.55;;;;;;;;;;5016735;28;20493;-80
2023/12/23 01:19:43;;;;;;;7.63;1.05;;;;;;;;;;5015240;28;20032;-80
2023/12/23 01:22:09;;;;;;;10.05;1.17;;;;;;;;;;5009923;28;20026;-80
2023/12/23 01:24:35;;;;;;;13.32;1.80;;;;;;;;;;5015876;28;20030;-80
2023/12/23 01:27:01;;;;;;;9.38;1.35;;;;;;;;;;5014120;28;20096;-80
2023/12/23 01:29:27;;;;;;;7.85;1.10;;;;;;;;;;5013523;28;20477;-80
2023/12/23 01:31:53;;;;;;;7.22;1.00;;;;;;;;;;5016143;28;20024;-80
2023/12/23 01:34:19;;;;;;;12.07;1.08;;;;;;;;;;5014648;28;20018;-80
2023/12/23 01:36:46;;;;;;;6.75;1.00;;;;;;;;;;5016378;28;20017;-80
2023/12/23 01:39:12;;;;;;;7.95;1.05;;;;;;;;;;5015252;28;20041;-80
2023/12/23 01:41:38;;;;;;;8.82;1.52;;;;;;;;;;5011133;28;20010;-80
2023/12/23 01:44:04;;;;;;;12.30;1.38;;;;;;;;;;5010005;28;20414;-80
2023/12/23 01:46:30;;;;;;;8.55;1.15;;;;;;;;;;5017113;28;20029;-80
2023/12/23 01:48:56;;;;;;;10.93;1.50;;;;;;;;;;5017561;28;20010;-80
2023/12/23 01:51:23;;;;;;;8.95;1.05;;;;;;;;;;5019407;28;20010;-80
2023/12/23 01:53:49;;;;;;;8.77;1.10;;;;;;;;;;5017228;28;20010;-80
2023/12/23 01:56:16;;;;;;;13.90;1.85;;;;;;;;;;5014747;28;20416;-80
2023/12/23 01:58:42;;;;;;;9.30;1.00;;;;;;;;;;5018805;28;20358;-80
2023/12/23 02:01:08;;;;;;;8.30;1.13;;;;;;;;;;5021318;28;20022;-80
2023/12/23 02:03:34;;;;;;;6.45;0.75;;;;;;;;;;5014041;28;20062;-80
2023/12/23 02:06:00;;;;;;;11.90;1.13;;;;;;;;;;5021955;28;20067;-80
2023/12/23 02:08:27;;;;;;;9.43;1.05;;;;;;;;;;5017147;28;20079;-80
2023/12/23 02:10:59;;;;;;;13.23;1.15;;;;;;;;;;5012741;28;20018;-80
2023/12/23 02:13:26;;;;;;;7.95;1.98;;;;;;;;;;5013480;28;20006;-80
2023/12/23 02:15:53;;;;;;;9.35;0.95;;;;;;;;;;5007058;28;20017;-80
2023/12/23 02:18:22;;;;;;;10.95;1.50;;;;;;;;;;5002165;28;20048;-80
2023/12/23 02:20:51;;;;;;;9.85;1.25;;;;;;;;;;5010917;28;20005;-80
2023/12/23 02:23:18;;;;;;;11.45;1.30;;;;;;;;;;5015209;28;20006;-80
2023/12/23 02:25:50;;;;;;;9.77;1.58;;;;;;;;;;5012833;28;20044;-80
2023/12/23 02:28:17;;;;;;;11.55;1.13;;;;;;;;;;5018361;28;20023;-80
2023/12/23 02:30:45;;;;;;;10.85;1.50;;;;;;;;;;5009680;28;20916;-80
2023/12/23 02:33:11;;;;;;;10.73;1.35;;;;;;;;;;5010506;28;20096;-80
2023/12/23 02:35:37;;;;;;;8.18;1.10;;;;;;;;;;5008324;28;20006;-80
2023/12/23 02:38:03;;;;;;;8.70;0.95;;;;;;;;;;5012670;28;20009;-80
2023/12/23 02:40:29;;;;;;;6.68;1.00;;;;;;;;;;5017575;28;20028;-80
2023/12/23 02:42:55;;;;;;;12.27;1.40;;;;;;;;;;5017014;28;20091;-80
2023/12/23 02:45:21;;;;;;;10.18;1.25;;;;;;;;;;5012605;28;20361;-80
2023/12/23 02:47:48;;;;;;;15.30;1.27;;;;;;;;;;5015189;28;20024;-80
2023/12/23 02:50:14;;;;;;;12.70;1.55;;;;;;;;;;5014165;28;20017;-80
2023/12/23 02:52:40;;;;;;;11.68;1.15;;;;;;;;;;5014043;28;20085;-79
2023/12/23 02:55:07;;;;;;;8.05;1.10;;;;;;;;;;5012746;28;20097;-80
2023/12/23 02:57:33;;;;;;;16.33;1.40;;;;;;;;;;5010007;28;20093;-80
2023/12/23 02:59:59;;;;;;;17.58;2.08;;;;;;;;;;5016669;28;20159;-80
2023/12/23 03:02:25;;;;;;;8.82;1.38;;;;;;;;;;5008825;28;20112;-80
2023/12/23 03:04:51;;;;;;;9.73;1.00;;;;;;;;;;5015767;28;20070;-80
2023/12/23 03:07:17;;;;;;;9.88;1.20;;;;;;;;;;5009304;28;20018;-80
2023/12/23 03:09:43;;;;;;;12.60;0.85;;;;;;;;;;5013104;28;20017;-80
2023/12/23 03:12:09;;;;;;;9.40;1.20;;;;;;;;;;5014404;28;20415;-80
2023/12/23 03:14:35;;;;;;;15.25;1.65;;;;;;;;;;5010741;28;20014;-80
2023/12/23 03:17:01;;;;;;;12.07;1.55;;;;;;;;;;5015031;28;20109;-80
2023/12/23 03:19:27;;;;;;;13.25;2.25;;;;;;;;;;5014703;28;20013;-80
2023/12/23 03:21:53;;;;;;;15.23;2.05;;;;;;;;;;5013819;28;20014;-80
2023/12/23 03:24:19;;;;;;;10.90;1.50;;;;;;;;;;5019842;28;21294;-80
2023/12/23 03:26:45;;;;;;;9.43;1.15;;;;;;;;;;5008557;28;20026;-80
2023/12/23 03:29:11;;;;;;;11.77;1.00;;;;;;;;;;5011908;28;20018;-80
2023/12/23 03:31:37;;;;;;;7.13;0.90;;;;;;;;;;5015249;28;20010;-80
2023/12/23 03:34:03;;;;;;;5.00;0.93;;;;;;;;;;5018418;28;20014;-80
2023/12/23 03:36:29;;;;;;;10.18;2.05;;;;;;;;;;5010621;28;20010;-80
2023/12/23 03:38:56;;;;;;;8.73;1.30;;;;;;;;;;5020138;28;20017;-80
2023/12/23 03:41:22;;;;;;;7.63;1.30;;;;;;;;;;5009450;28;20010;-80
2023/12/23 03:43:48;;;;;;;8.10;1.10;;;;;;;;;;5022149;28;20009;-80
2023/12/23 03:46:17;;;;;;;10.25;2.08;;;;;;;;;;5023243;28;20497;-81
2023/12/23 03:48:43;;;;;;;7.35;1.95;;;;;;;;;;5021021;28;20013;-80
2023/12/23 03:51:09;;;;;;;10.77;1.95;;;;;;;;;;5022059;28;20014;-80
2023/12/23 03:53:35;;;;;;;9.73;1.73;;;;;;;;;;5013769;28;20065;-80
2023/12/23 03:56:01;;;;;;;13.18;1.60;;;;;;;;;;5017315;28;20114;-80
2023/12/23 03:58:27;;;;;;;6.82;1.17;;;;;;;;;;5017346;28;20015;-81
2023/12/23 04:00:53;;;;;;;9.60;1.17;;;;;;;;;;5025596;28;20024;-80
2023/12/23 04:03:20;;;;;;;3.72;0.70;;;;;;;;;;5011924;28;20010;-80
2023/12/23 04:05:46;;;;;;;3.67;0.70;;;;;;;;;;5014701;28;21439;-80
2023/12/23 04:08:12;;;;;;;7.95;0.77;;;;;;;;;;5019148;28;20033;-80
2023/12/23 04:10:38;;;;;;;4.28;0.82;;;;;;;;;;5013698;28;20044;-80
2023/12/23 04:13:04;;;;;;;6.50;0.88;;;;;;;;;;5012414;28;20025;-80
2023/12/23 04:15:30;;;;;;;6.55;0.75;;;;;;;;;;5020449;28;20078;-80
2023/12/23 04:17:56;;;;;;;7.00;1.08;;;;;;;;;;5021195;28;20052;-80
2023/12/23 04:20:22;;;;;;;5.75;0.60;;;;;;;;;;5017083;28;20484;-80
2023/12/23 04:22:49;;;;;;;4.50;0.52;;;;;;;;;;5013256;28;20087;-81
2023/12/23 04:25:15;;;;;;;1.52;0.50;;;;;;;;;;5018788;28;20095;-80
2023/12/23 04:27:41;;;;;;;2.38;0.50;;;;;;;;;;5015638;28;20505;-81
2023/12/23 04:30:07;;;;;;;5.63;0.60;;;;;;;;;;5013568;28;20026;-81
2023/12/23 04:32:33;;;;;;;2.03;0.32;;;;;;;;;;5011523;28;20017;-80
2023/12/23 04:34:59;;;;;;;2.80;0.40;;;;;;;;;;5018588;28;20014;-81
2023/12/23 04:37:26;;;;;;;0.50;0.40;;;;;;;;;;5011889;28;20428;-80
2023/12/23 04:39:53;;;;;;;1.65;0.30;;;;;;;;;;5015748;28;20018;-82
2023/12/23 04:42:19;;;;;;;2.00;0.50;;;;;;;;;;5017766;28;20501;-80
2023/12/23 04:44:45;;;;;;;2.75;0.68;;;;;;;;;;5017275;28;20017;-81
2023/12/23 04:47:11;;;;;;;10.57;1.63;;;;;;;;;;5023995;28;20506;-81
2023/12/23 04:49:38;;;;;;;16.98;2.47;;;;;;;;;;5012824;28;20068;-81
2023/12/23 04:52:04;;;;;;;28.35;4.18;;;;;;;;;;5015813;28;20588;-81
2023/12/23 04:54:32;;;;;;;34.78;6.05;;;;;;;;;;5017804;28;20017;-81
2023/12/23 04:56:58;;;;;;;31.98;4.93;;;;;;;;;;5016398;28;20394;-81
2023/12/23 04:59:24;;;;;;;36.78;4.65;;;;;;;;;;5013470;28;20381;-80
2023/12/23 05:01:50;;;;;;;21.92;4.15;;;;;;;;;;5017402;28;20504;-81
2023/12/23 05:04:17;;;;;;;31.50;4.65;;;;;;;;;;5015638;28;20425;-81
2023/12/23 05:06:43;;;;;;;30.70;4.50;;;;;;;;;;5010294;28;20044;-81
2023/12/23 05:09:09;;;;;;;29.70;4.65;;;;;;;;;;5019981;28;20083;-81
2023/12/23 05:11:35;;;;;;;28.65;4.57;;;;;;;;;;5014890;28;20497;-81
2023/12/23 05:14:01;;;;;;;36.97;5.05;;;;;;;;;;5011665;28;20108;-81
2023/12/23 05:16:27;;;;;;;20.40;3.72;;;;;;;;;;5016901;28;20018;-80
2023/12/23 05:18:53;;;;;;;25.77;3.78;;;;;;;;;;5017436;28;20104;-81
2023/12/23 05:21:19;;;;;;;25.27;4.13;;;;;;;;;;5017352;28;20104;-81
2023/12/23 05:23:45;;;;;;;26.92;4.20;;;;;;;;;;5018526;28;20010;-81
2023/12/23 05:26:11;;;;;;;27.08;4.47;;;;;;;;;;5015901;28;20600;-81
2023/12/23 05:28:37;;;;;;;26.17;4.22;;;;;;;;;;5015464;28;20109;-81
2023/12/23 05:31:03;;;;;;;26.83;4.40;;;;;;;;;;5016126;28;20020;-80
2023/12/23 05:33:29;;;;;;;36.63;4.68;;;;;;;;;;5015629;28;20009;-81
2023/12/23 05:35:55;;;;;;;27.73;4.57;;;;;;;;;;5022145;28;20010;-81
2023/12/23 05:38:21;;;;;;;31.70;4.78;;;;;;;;;;5011818;28;20025;-81
2023/12/23 05:40:47;;;;;;;24.80;4.03;;;;;;;;;;5014054;28;20038;-81
2023/12/23 05:43:13;;;;;;;26.88;4.50;;;;;;;;;;5021619;28;20093;-81
2023/12/23 05:45:39;;;;;;;22.13;3.72;;;;;;;;;;5018007;28;20014;-81
2023/12/23 05:48:05;;;;;;;21.55;4.03;;;;;;;;;;5016667;28;20028;-81
2023/12/23 05:50:31;;;;;;;25.27;5.40;;;;;;;;;;5017567;28;20021;-81
2023/12/23 05:52:57;;;;;;;33.60;4.50;;;;;;;;;;5010012;28;20021;-81
2023/12/23 05:55:23;;;;;;;29.55;4.22;;;;;;;;;;5015189;28;20013;-81
2023/12/23 05:57:49;;;;;;;30.27;4.40;;;;;;;;;;5016790;28;20043;-81
2023/12/23 06:00:16;;;;;;;27.60;5.53;;;;;;;;;;5013333;28;20041;-81
2023/12/23 06:02:42;;;;;;;38.63;5.13;;;;;;;;;;5012738;28;20108;-81
2023/12/23 06:05:08;;;;;;;26.88;3.85;;;;;;;;;;5015284;28;20014;-81
2023/12/23 06:07:34;;;;;;;22.13;3.28;;;;;;;;;;5019802;28;20075;-81
2023/12/23 06:10:00;;;;;;;32.63;4.78;;;;;;;;;;5008724;28;20014;-81
2023/12/23 06:12:26;;;;;;;19.65;3.22;;;;;;;;;;5013985;28;20025;-81
2023/12/23 06:14:56;;;;;;;22.25;3.58;;;;;;;;;;5017433;28;20017;-81
2023/12/23 06:17:22;;;;;;;24.15;3.90;;;;;;;;;;5019407;28;20038;-81
2023/12/23 06:19:48;;;;;;;35.15;5.28;;;;;;;;;;5016510;28;20107;-80
2023/12/23 06:22:14;;;;;;;30.63;4.28;;;;;;;;;;5011323;28;20018;-81
2023/12/23 06:24:40;;;;;;;27.95;4.10;;;;;;;;;;5015415;28;20228;-81
2023/12/23 06:27:06;;;;;;;33.05;4.45;;;;;;;;;;5016034;28;20025;-81
2023/12/23 06:29:32;;;;;;;27.30;3.95;;;;;;;;;;5015486;28;20014;-81
2023/12/23 06:31:59;;;;;;;31.98;4.40;;;;;;;;;;5012865;28;20033;-81
2023/12/23 06:34:25;;;;;;;25.10;4.15;;;;;;;;;;5012221;28;20386;-81
2023/12/23 06:36:51;;;;;;;28.58;3.92;;;;;;;;;;5015666;28;20033;-81
2023/12/23 06:39:17;;;;;;;21.33;3.90;;;;;;;;;;5021109;28;20026;-81
2023/12/23 06:41:45;;;;;;;28.65;3.95;;;;;;;;;;5016215;28;20010;-81
2023/12/23 06:44:11;;;;;;;20.88;3.53;;;;;;;;;;5014697;28;20045;-81
2023/12/23 06:46:37;;;;;;;13.05;3.42;;;;;;;;;;5016212;28;20088;-81
2023/12/23 06:49:03;;;;;;;28.83;4.53;;;;;;;;;;5019952;28;20469;-81
2023/12/23 06:51:29;;;;;;;21.98;3.58;;;;;;;;;;5019340;28;20033;-81
2023/12/23 06:53:56;;;;;;;16.45;2.58;;;;;;;;;;5017537;28;20371;-81
2023/12/23 06:56:22;;;;;;;27.33;4.30;;;;;;;;;;5019491;28;20571;-81
2023/12/23 06:58:49;;;;;;;18.38;3.78;;;;;;;;;;5013596;28;20527;-81
2023/12/23 07:01:15;;;;;;;33.95;4.47;;;;;;;;;;5013465;28;20014;-81
2023/12/23 07:03:44;;;;;;;32.92;3.45;;;;;;;;;;5011049;28;20060;-81
2023/12/23 07:06:13;;;;;;;20.83;3.92;;;;;;;;;;5013890;28;20048;-84
2023/12/23 07:08:40;;;;;;;18.00;3.50;;;;;;;;;;5009547;28;20022;-82
2023/12/23 07:11:06;;;;;;;23.95;3.80;;;;;;;;;;5015750;28;20017;-82
2023/12/23 07:13:32;;;;;;;24.00;3.47;;;;;;;;;;5009453;28;20478;-87
2023/12/23 07:15:59;;;;;;;26.45;4.20;;;;;;;;;;5008008;28;20040;-82
2023/12/23 07:18:25;;;;;;;33.30;4.45;;;;;;;;;;5004708;28;20450;-82
2023/12/23 07:20:51;;;;;;;27.23;4.78;;;;;;;;;;5006159;28;20020;-82
2023/12/23 07:23:17;;;;;;;28.48;4.20;;;;;;;;;;5003558;28;20381;-82
2023/12/23 07:25:43;;;;;;;19.98;4.43;;;;;;;;;;5005393;28;20061;-82
2023/12/23 07:28:09;;;;;;;10.25;2.28;;;;;;;;;;5005380;28;20030;-82
2023/12/23 07:30:41;;;;;;;22.08;3.80;;;;;;;;;;5005010;28;20032;-82
2023/12/23 07:33:07;;;;;;;23.88;3.25;;;;;;;;;;5002776;28;20056;-82
2023/12/23 07:35:33;;;;;;;24.05;3.88;;;;;;;;;;5005167;28;20385;-82
2023/12/23 07:37:59;;;;;;;18.05;3.15;;;;;;;;;;5014468;28;20041;-82
2023/12/23 07:40:25;;;;;;;14.70;2.47;;;;;;;;;;5029648;28;20032;-84
2023/12/23 07:42:51;;;;;;;14.30;2.53;;;;;;;;;;5016895;28;20013;-83
2023/12/23 07:45:17;;;;;;;17.73;2.40;;;;;;;;;;5032295;28;20021;-82
2023/12/23 07:47:44;;;;;;;17.58;3.17;;;;;;;;;;5030434;28;20075;-82
2023/12/23 07:50:11;;;;;;;19.42;2.78;;;;;;;;;;5024575;28;20191;-82
2023/12/23 07:52:37;;;;;;;15.77;2.47;;;;;;;;;;5026353;28;20021;-82
2023/12/23 07:55:03;;;;;;;14.82;2.70;;;;;;;;;;5030094;28;20012;-82
2023/12/23 07:57:29;;;;;;;22.63;3.38;;;;;;;;;;5029808;28;20386;-83
2023/12/23 07:59:55;;;;;;;20.48;4.07;;;;;;;;;;5020110;28;20037;-81
2023/12/23 08:02:21;;;;;;;18.00;3.05;;;;;;;;;;5011223;28;20021;-82
2023/12/23 08:04:47;;;;;;;18.90;2.75;;;;;;;;;;5022742;28;20021;-82
2023/12/23 08:07:13;;;;;;;20.08;3.22;;;;;;;;;;5021842;28;20044;-82
2023/12/23 08:09:39;;;;;;;14.82;2.55;;;;;;;;;;5016117;28;20481;-82
2023/12/23 08:12:06;;;;;;;21.85;2.97;;;;;;;;;;5010679;28;20025;-82
2023/12/23 08:14:32;;;;;;;14.45;2.80;;;;;;;;;;5024640;28;20017;-80
2023/12/23 08:16:58;;;;;;;19.80;2.95;;;;;;;;;;5021226;28;20041;-78
2023/12/23 08:19:24;;;;;;;15.13;2.97;;;;;;;;;;5023751;28;20112;-81
2023/12/23 08:21:50;;;;;;;22.67;3.25;;;;;;;;;;5019561;28;20026;-80
2023/12/23 08:24:16;;;;;;;14.57;2.40;;;;;;;;;;5024886;28;20080;-81
2023/12/23 08:26:42;;;;;;;27.27;3.75;;;;;;;;;;5031023;28;20025;-82
2023/12/23 08:29:09;;;;;;;20.17;3.00;;;;;;;;;;5021673;28;20033;-84
2023/12/23 08:31:41;;;;;;;26.10;3.05;;;;;;;;;;5012778;28;20010;-86
2023/12/23 08:34:08;;;;;;;18.65;3.15;;;;;;;;;;5019616;28;20040;-85
2023/12/23 08:36:34;;;;;;;22.63;5.05;;;;;;;;;;5031282;28;20075;-86
2023/12/23 08:39:00;;;;;;;17.30;3.00;;;;;;;;;;5029748;28;20014;-82
2023/12/23 08:41:26;;;;;;;17.10;2.65;;;;;;;;;;5017359;28;20014;-85
2023/12/23 08:43:52;;;;;;;17.88;3.25;;;;;;;;;;5013710;28;20071;-85
2023/12/23 08:46:18;;;;;;;19.00;3.33;;;;;;;;;;5030697;28;20025;-84
2023/12/23 08:48:44;;;;;;;20.55;2.78;;;;;;;;;;5016607;28;20392;-83
2023/12/23 08:51:10;;;;;;;17.20;2.55;;;;;;;;;;5001628;28;20067;-83
2023/12/23 08:53:36;;;;;;;22.80;4.20;;;;;;;;;;5001916;28;20118;-83
2023/12/23 08:56:02;;;;;;;18.00;2.67;;;;;;;;;;5000692;28;20140;-84
2023/12/23 08:58:30;;;;;;;18.65;3.80;;;;;;;;;;5018061;28;20055;-83
2023/12/23 09:00:56;;;;;;;19.60;3.58;;;;;;;;;;4999091;28;20032;-83
2023/12/23 09:03:22;;;;;;;16.30;2.90;;;;;;;;;;4996629;28;20046;-84
2023/12/23 09:05:48;;;;;;;19.20;2.95;;;;;;;;;;5002130;28;20469;-83
2023/12/23 09:08:14;;;;;;;15.15;3.05;;;;;;;;;;5001261;28;20128;-83
2023/12/23 09:10:40;;;;;;;22.58;3.78;;;;;;;;;;5000109;28;20014;-84
2023/12/23 09:13:06;;;;;;;19.20;3.17;;;;;;;;;;4998629;28;20125;-83
2023/12/23 09:15:33;;;;;;;18.65;3.67;;;;;;;;;;4996770;28;20048;-84
2023/12/23 09:17:59;;;;;;;20.10;3.40;;;;;;;;;;5004564;28;20045;-84
2023/12/23 09:20:25;;;;;;;20.83;3.20;;;;;;;;;;5009531;28;20020;-83
2023/12/23 09:22:51;;;;;;;29.58;3.90;;;;;;;;;;5003163;28;20071;-84
2023/12/23 09:25:17;;;;;;;24.73;3.78;;;;;;;;;;5010836;28;20014;-83
2023/12/23 09:27:43;;;;;;;20.95;3.67;;;;;;;;;;5009086;28;20281;-84
2023/12/23 09:30:09;;;;;;;19.95;3.10;;;;;;;;;;5011717;28;20394;-83
2023/12/23 09:32:35;;;;;;;18.05;3.00;;;;;;;;;;5005412;28;20018;-83
2023/12/23 09:35:01;;;;;;;18.63;2.47;;;;;;;;;;5007394;28;20172;-83
2023/12/23 09:37:27;;;;;;;18.35;2.70;;;;;;;;;;5010286;28;20010;-84
2023/12/23 09:39:53;;;;;;;16.17;2.70;;;;;;;;;;5013890;28;20058;-84
2023/12/23 09:42:21;;;;;;;13.48;2.65;;;;;;;;;;5030837;28;20024;-84
2023/12/23 09:44:47;;;;;;;19.48;2.80;;;;;;;;;;5016492;28;20017;-84
2023/12/23 09:47:14;;;;;;;17.15;2.83;;;;;;;;;;5029180;28;20116;-84
2023/12/23 09:49:40;;;;;;;21.25;2.97;;;;;;;;;;5028291;28;20017;-84
2023/12/23 09:52:06;;;;;;;30.23;4.35;;;;;;;;;;5029360;28;20017;-88
2023/12/23 09:54:34;;;;;;;15.82;3.15;;;;;;;;;;5013376;28;20010;-87
2023/12/23 09:57:01;;;;;;;12.82;2.60;;;;;;;;;;5021891;28;20071;-87
2023/12/23 09:59:27;;;;;;;17.90;2.70;;;;;;;;;;5022333;28;20359;-87
2023/12/23 10:01:54;;;;;;;21.45;3.13;;;;;;;;;;5016198;28;20056;-87
2023/12/23 10:04:20;;;;;;;23.80;3.50;;;;;;;;;;5011517;28;20028;-87
2023/12/23 10:06:46;;;;;;;21.08;2.78;;;;;;;;;;5018441;28;20030;-87
2023/12/23 10:09:12;;;;;;;16.90;3.33;;;;;;;;;;5017995;28;20018;-87
2023/12/23 10:11:38;;;;;;;28.98;3.42;;;;;;;;;;5018558;28;20018;-87
2023/12/23 10:14:04;;;;;;;20.42;2.72;;;;;;;;;;5025057;28;20025;-87
2023/12/23 10:16:30;;;;;;;24.45;3.40;;;;;;;;;;5029780;28;20014;-87
2023/12/23 10:18:57;;;;;;;29.20;5.80;;;;;;;;;;5022066;28;20045;-87
2023/12/23 10:21:23;;;;;;;26.05;3.63;;;;;;;;;;5028563;28;20033;-87
2023/12/23 10:23:49;;;;;;;21.65;3.33;;;;;;;;;;5024317;28;20083;-87
2023/12/23 10:26:15;;;;;;;33.00;3.83;;;;;;;;;;5016993;28;20017;-87
2023/12/23 10:28:43;;;;;;;15.07;3.03;;;;;;;;;;5007353;28;20026;-87
2023/12/23 10:31:12;;;;;;;21.00;2.78;;;;;;;;;;5021968;28;20018;-87
2023/12/23 10:33:42;;;;;;;20.90;3.88;;;;;;;;;;5013949;28;20021;-87
2023/12/23 10:36:11;;;;;;;14.68;2.47;;;;;;;;;;5027665;28;20009;-87
2023/12/23 10:38:39;;;;;;;16.07;3.20;;;;;;;;;;5030713;28;20025;-86
2023/12/23 10:41:09;;;;;;;19.05;2.88;;;;;;;;;;5017362;28;20033;-87
2023/12/23 10:43:35;;;;;;;;;;;;;;;;;;5017202;28;20052;-88
2023/12/23 10:46:03;;;;;;;17.38;2.75;;;;;;;;;;5022398;28;20080;-87
2023/12/23 10:48:29;;;;;;;21.98;2.88;;;;;;;;;;5017784;28;20018;-87
2023/12/23 10:50:56;;;;;;;18.08;2.72;;;;;;;;;;5017693;28;20041;-88
2023/12/23 10:53:23;;;;;;;15.68;2.50;;;;;;;;;;5010043;28;20017;-88
2023/12/23 10:55:49;;;;;;;19.08;2.78;;;;;;;;;;5019688;28;20477;-85
2023/12/23 10:58:16;;;;;;;16.60;2.20;;;;;;;;;;5023508;28;20466;-87
2023/12/23 11:00:43;;;;;;;18.40;3.00;;;;;;;;;;5020609;28;20049;-87
2023/12/23 11:03:09;;;;;;;15.73;2.08;;;;;;;;;;5011452;28;20225;-87
2023/12/23 11:05:37;;;;;;;18.80;2.67;;;;;;;;;;5001925;28;20022;-87
2023/12/23 11:08:04;;;;;;;19.55;2.40;;;;;;;;;;5000808;28;20022;-87
2023/12/23 11:10:30;;;;;;;18.02;2.50;;;;;;;;;;5002817;28;20521;-86
2023/12/23 11:12:57;;;;;;;14.40;2.28;;;;;;;;;;5003389;28;21195;-87
2023/12/23 11:15:24;;;;;;;11.38;2.60;;;;;;;;;;5004709;28;20105;-88
2023/12/23 11:17:50;;;;;;;27.30;4.35;;;;;;;;;;5010014;28;20039;-87
2023/12/23 11:20:36;;;;;;;19.48;2.92;;;;;;;;;;5011663;28;20418;-87
2023/12/23 11:23:21;;;;;;;17.80;2.60;;;;;;;;;;4998592;28;20050;-87
2023/12/23 11:25:47;;;;;;;13.63;2.17;;;;;;;;;;5004984;28;20462;-88
2023/12/23 11:28:14;;;;;;;13.55;2.10;;;;;;;;;;4997921;28;20757;-87
2023/12/23 11:30:47;;;;;;;15.73;2.60;;;;;;;;;;5000025;28;20478;-88
2023/12/23 11:33:13;;;;;;;18.77;2.60;;;;;;;;;;5024760;28;20088;-85
2023/12/23 11:35:46;;;;;;;17.85;3.03;;;;;;;;;;5010515;28;20014;-84
2023/12/23 11:38:12;;;;;;;16.15;2.28;;;;;;;;;;5025917;28;20035;-83
2023/12/23 11:40:38;;;;;;;13.88;1.92;;;;;;;;;;5021801;28;20026;-84
2023/12/23 11:43:05;;;;;;;15.50;2.20;;;;;;;;;;5003519;28;20368;-84
2023/12/23 11:45:31;;;;;;;20.00;3.00;;;;;;;;;;5036244;28;20056;-86
2023/12/23 11:47:57;;;;;;;19.77;2.63;;;;;;;;;;5010302;28;20030;-85
2023/12/23 11:50:23;;;;;;;17.90;2.60;;;;;;;;;;5019268;28;20021;-85
2023/12/23 11:52:50;;;;;;;12.45;1.40;;;;;;;;;;5000300;28;20056;-85
2023/12/23 11:55:17;;;;;;;17.00;2.40;;;;;;;;;;5009561;28;20025;-84
2023/12/23 11:57:44;;;;;;;15.73;2.65;;;;;;;;;;5020919;28;20028;-85
2023/12/23 12:00:11;;;;;;;18.42;2.80;;;;;;;;;;5029209;28;20025;-84
2023/12/23 12:02:37;;;;;;;12.25;2.25;;;;;;;;;;5031138;28;20021;-84
2023/12/23 12:05:03;;;;;;;14.13;2.80;;;;;;;;;;5032023;28;20093;-85
2023/12/23 12:07:30;;;;;;;13.15;2.28;;;;;;;;;;5023072;28;20335;-85
2023/12/23 12:09:56;;;;;;;15.27;2.80;;;;;;;;;;5004980;28;20026;-85
2023/12/23 12:12:23;;;;;;;15.90;2.28;;;;;;;;;;5007599;28;20021;-84
2023/12/23 12:14:49;;;;;;;18.77;2.55;;;;;;;;;;5002746;28;20014;-84
2023/12/23 12:17:15;;;;;;;17.50;3.13;;;;;;;;;;5007267;28;20139;-84
2023/12/23 12:19:41;;;;;;;16.73;2.85;;;;;;;;;;5003816;28;21558;-84
2023/12/23 12:22:08;;;;;;;16.05;2.65;;;;;;;;;;5006277;28;20485;-84
2023/12/23 12:24:34;;;;;;;17.42;2.53;;;;;;;;;;5017241;28;20043;-84
2023/12/23 12:27:01;;;;;;;20.75;2.50;;;;;;;;;;5016868;28;20041;-84
2023/12/23 12:29:27;;;;;;;16.27;2.03;;;;;;;;;;5005516;28;20010;-85
2023/12/23 12:31:53;;;;;;;15.43;2.47;;;;;;;;;;5005086;28;20778;-85
2023/12/23 12:34:22;;;;;;;15.63;2.00;;;;;;;;;;5004214;28;20010;-85
2023/12/23 12:36:48;;;;;;;13.60;1.92;;;;;;;;;;5004320;28;20095;-85
2023/12/23 12:39:14;;;;;;;10.93;1.70;;;;;;;;;;5002450;28;20081;-85
2023/12/23 12:41:43;;;;;;;12.43;2.03;;;;;;;;;;5004978;28;20022;-84
2023/12/23 12:44:09;;;;;;;14.90;2.55;;;;;;;;;;5002858;28;20014;-84
2023/12/23 12:46:36;;;;;;;14.88;2.33;;;;;;;;;;5006194;28;20021;-88
2023/12/23 12:49:06;;;;;;;18.08;2.47;;;;;;;;;;5004580;28;20520;-86
2023/12/23 12:51:32;;;;;;;15.70;2.47;;;;;;;;;;5006135;28;20386;-85
2023/12/23 12:53:59;;;;;;;16.60;2.70;;;;;;;;;;5028089;28;20013;-85
2023/12/23 12:56:26;;;;;;;15.13;2.08;;;;;;;;;;5010169;28;20153;-85
2023/12/23 12:58:52;;;;;;;14.30;2.05;;;;;;;;;;5019605;28;20109;-85
2023/12/23 13:01:18;;;;;;;16.30;2.25;;;;;;;;;;5031127;28;20024;-86
2023/12/23 13:03:45;;;;;;;12.90;2.72;;;;;;;;;;5013664;28;20048;-85
2023/12/23 13:06:11;;;;;;;15.52;2.60;;;;;;;;;;5003073;28;20040;-85
2023/12/23 13:08:37;;;;;;;15.07;2.00;;;;;;;;;;5001896;28;20044;-85
2023/12/23 13:11:03;;;;;;;17.48;2.80;;;;;;;;;;5002314;28;20417;-85
2023/12/23 13:13:29;;;;;;;11.38;2.00;;;;;;;;;;5001460;28;20377;-85
2023/12/23 13:15:55;;;;;;;16.90;2.03;;;;;;;;;;5001854;28;20028;-85
2023/12/23 13:18:22;;;;;;;16.02;2.97;;;;;;;;;;5003816;28;20045;-84
2023/12/23 13:20:48;;;;;;;16.88;2.20;;;;;;;;;;5003472;28;20025;-85
2023/12/23 13:23:14;;;;;;;12.20;2.15;;;;;;;;;;5004645;28;20112;-85
2023/12/23 13:25:41;;;;;;;11.25;2.28;;;;;;;;;;5020707;28;20481;-85
2023/12/23 13:28:07;;;;;;;10.30;1.83;;;;;;;;;;5000282;28;20025;-85
2023/12/23 13:30:33;;;;;;;13.43;2.10;;;;;;;;;;5005543;28;20480;-84
2023/12/23 13:32:59;;;;;;;16.10;2.03;;;;;;;;;;5012103;28;20366;-85
2023/12/23 13:35:27;;;;;;;15.95;1.63;;;;;;;;;;5017279;28;20025;-85
2023/12/23 13:37:53;;;;;;;14.30;2.20;;;;;;;;;;5016181;28;20545;-84
2023/12/23 13:40:19;;;;;;;13.52;2.15;;;;;;;;;;5027894;28;20075;-85
2023/12/23 13:42:45;;;;;;;14.90;2.25;;;;;;;;;;5012845;28;20101;-85
2023/12/23 13:45:12;;;;;;;15.60;2.33;;;;;;;;;;5012217;28;20264;-85
2023/12/23 13:47:39;;;;;;;14.75;1.83;;;;;;;;;;5009356;28;20026;-85
2023/12/23 13:50:05;;;;;;;16.35;1.98;;;;;;;;;;5028499;28;20083;-84
2023/12/23 13:52:31;;;;;;;13.70;2.08;;;;;;;;;;5029560;28;20384;-85
2023/12/23 13:54:57;;;;;;;10.48;2.00;;;;;;;;;;5005834;28;20109;-85
2023/12/23 13:57:25;;;;;;;16.70;2.33;;;;;;;;;;5015933;28;20018;-85
2023/12/23 13:59:52;;;;;;;19.65;2.63;;;;;;;;;;5029434;28;20435;-85
2023/12/23 14:02:18;;;;;;;11.43;1.42;;;;;;;;;;5010427;28;20022;-85
2023/12/23 14:04:44;;;;;;;12.85;2.13;;;;;;;;;;5023725;28;20025;-85
2023/12/23 14:07:10;;;;;;;17.73;2.35;;;;;;;;;;5029197;28;20362;-85
2023/12/23 14:09:36;;;;;;;13.85;2.42;;;;;;;;;;5029283;28;20075;-84
2023/12/23 14:12:03;;;;;;;12.40;2.35;;;;;;;;;;5013455;28;20018;-85
2023/12/23 14:14:29;;;;;;;18.13;2.72;;;;;;;;;;5016033;28;20014;-85
2023/12/23 14:16:55;;;;;;;11.23;1.90;;;;;;;;;;5025254;28;20343;-85
2023/12/23 14:19:21;;;;;;;11.48;2.28;;;;;;;;;;5028751;28;20018;-85
2023/12/23 14:21:47;;;;;;;16.35;2.10;;;;;;;;;;5009410;28;20363;-85
2023/12/23 14:24:13;;;;;;;11.35;2.13;;;;;;;;;;5019783;28;20021;-85
2023/12/23 14:26:39;;;;;;;14.65;2.50;;;;;;;;;;5029098;28;20275;-85
2023/12/23 14:29:05;;;;;;;10.20;1.65;;;;;;;;;;5030091;28;20017;-84